Data for 06/22/2015

Time Sea-Level Adjusted Pressure Absolute Pressure Temperature Relative Humidity Dew Point   
(mb) (inHg) (mb) (inHg) (C) (F) (%) (C) (F)
00:05 1019 30.09 848 25.04 11.2 52.1 74 6.8 44.3
00:10 1019 30.09 848 25.04 10.9 51.7 75 6.7 44
00:15 1019 30.09 848 25.04 10.7 51.3 75 6.6 43.9
00:20 1019 30.09 848 25.04 10.7 51.2 76 6.6 43.8
00:25 1019 30.09 848 25.04 10.6 51.1 76 6.5 43.8
00:30 1019 30.09 848 25.04 10.6 51 76 6.5 43.8
00:35 1019 30.09 848 25.04 10.3 50.6 77 6.5 43.7
00:40 1019 30.09 848 25.04 10.2 50.4 78 6.5 43.6
00:45 1019 30.09 848 25.04 10.3 50.5 76 6.2 43.2
00:50 1019 30.09 848 25.04 10.5 50.9 75 6.3 43.3
00:55 1019 30.09 848 25.04 10.6 51 75 6.3 43.3
01:00 1019 30.09 848 25.04 10.5 50.9 75 6.2 43.2
01:05 1019 30.09 848 25.04 10.5 50.9 73 6 42.7
01:10 1019 30.09 848 25.04 10.6 51 73 6 42.7
01:15 1019 30.09 848 25.04 10.6 51 72 5.7 42.3
01:20 1019 30.09 848 25.04 10.7 51.2 71 5.7 42.3
01:25 1019 30.09 848 25.04 10.6 51.1 71 5.5 42
01:30 1019 30.09 848 25.04 10.5 51 70 5.4 41.7
01:35 1019 30.09 848 25.04 10.6 51.1 70 5.4 41.8
01:40 1019 30.09 848 25.04 10.7 51.3 70 5.5 41.9
01:45 1019 30.09 848 25.04 10.7 51.2 71 5.7 42.2
01:50 1019 30.09 848 25.04 10.5 51 71 5.5 41.9
01:55 1019 30.09 848 25.04 10.3 50.5 71 5.3 41.6
02:00 1019 30.09 849 25.07 10.5 50.8 70 5.3 41.5
02:05 1019 30.09 849 25.07 10.7 51.2 69 5.2 41.3
02:10 1019 30.09 848 25.04 11.1 51.9 66 5 41
02:15 1019 30.09 849 25.07 11.1 51.9 66 5.1 41.2
02:20 1019 30.09 849 25.07 11.1 52.1 66 5.1 41.1
02:25 1019 30.09 849 25.07 11.7 53 64 5.1 41.1
02:30 1019 30.09 849 25.07 11.7 53.1 63 5.1 41.1
02:35 1020 30.12 849 25.07 11.4 52.6 66 5.4 41.8
02:40 1020 30.12 849 25.07 10.9 51.6 67 5.2 41.3
02:45 1020 30.12 849 25.07 10.8 51.4 67 4.9 40.8
02:50 1020 30.12 849 25.07 10.9 51.7 65 4.7 40.4
02:55 1020 30.12 849 25.07 11.1 51.9 66 4.9 40.8
03:00 1020 30.12 849 25.07 11 51.8 65 4.8 40.6
03:05 1020 30.12 849 25.07 10.9 51.6 66 4.9 40.8
03:10 1020 30.12 849 25.07 10.5 50.9 70 5.4 41.7
03:15 1020 30.12 849 25.07 10 50.1 72 5.3 41.5
03:20 1020 30.12 849 25.07 9.8 49.6 75 5.6 42
03:25 1020 30.12 849 25.07 9.5 49.1 77 5.8 42.4
03:30 1020 30.12 849 25.07 9.3 48.7 77 5.5 41.9
03:35 1020 30.12 849 25.07 9.1 48.3 77 5.3 41.6
03:40 1020 30.12 849 25.07 9 48.2 76 5.1 41.2
03:45 1020 30.12 849 25.07 8.8 47.8 77 4.9 40.9
03:50 1020 30.12 849 25.07 8.6 47.5 77 4.9 40.8
03:55 1020 30.12 849 25.07 8.5 47.3 78 4.9 40.9
04:00 1020 30.12 849 25.07 8.7 47.6 79 5.2 41.3
04:05 1020 30.12 849 25.07 8.8 47.9 78 5.3 41.5
04:10 1020 30.12 850 25.1 8.9 47.9 77 5 41
04:15 1020 30.12 850 25.1 8.8 47.8 76 4.7 40.5
04:20 1020 30.12 850 25.1 8.6 47.5 76 4.7 40.4
04:25 1021 30.15 850 25.1 8.6 47.4 75 4.5 40.1
04:30 1021 30.15 850 25.1 8.5 47.3 77 4.7 40.5
04:35 1021 30.15 850 25.1 8.1 46.6 77 4.3 39.8
04:40 1020 30.12 850 25.1 8.2 46.8 76 4.3 39.7
04:45 1021 30.15 850 25.1 8.1 46.6 77 4.4 39.9
04:50 1021 30.15 850 25.1 7.9 46.2 76 4 39.2
04:55 1021 30.15 850 25.1 8.1 46.6 76 4.1 39.5
05:00 1021 30.15 850 25.1 8.2 46.8 75 4.1 39.4
05:05 1021 30.15 850 25.1 8.4 47.1 73 3.9 39
05:10 1021 30.15 850 25.1 9 48.2 71 4.1 39.4
05:15 1021 30.15 850 25.1 9.4 48.8 71 4.5 40.1
05:20 1021 30.15 850 25.1 9.5 49.2 71 4.6 40.2
05:25 1021 30.15 850 25.1 9.3 48.7 71 4.4 39.9
05:30 1021 30.15 850 25.1 9.3 48.7 71 4.3 39.7
05:35 1021 30.15 850 25.1 9.4 48.9 71 4.5 40.1
05:40 1021 30.15 850 25.1 9.6 49.2 71 4.7 40.4
05:45 1021 30.15 850 25.1 9.7 49.4 71 4.7 40.4
05:50 1021 30.15 850 25.1 9.7 49.4 69 4.4 39.9
05:55 1021 30.15 850 25.1 10 50 68 4.4 40
06:00 1021 30.15 850 25.1 10.2 50.3 68 4.7 40.4
06:05 1021 30.15 850 25.1 10.4 50.7 68 4.8 40.6
06:10 1021 30.15 850 25.1 10.6 51 68 5 41
06:15 1021 30.15 850 25.1 10.9 51.6 67 5.1 41.1
06:20 1021 30.15 851 25.13 11.3 52.3 68 5.7 42.3
06:25 1021 30.15 851 25.13 11.4 52.5 67 5.5 42
06:30 1021 30.15 851 25.13 11.6 52.8 66 5.4 41.7
06:35 1021 30.15 851 25.13 12 53.6 64 5.6 42
06:40 1021 30.15 851 25.13 12.4 54.4 63 5.7 42.2
06:45 1021 30.15 851 25.13 12.7 54.8 63 5.8 42.4
06:50 1021 30.15 851 25.13 13.1 55.6 62 6 42.9
06:55 1021 30.15 851 25.13 13.8 56.9 61 6.4 43.5
07:00 1021 30.15 851 25.13 13.6 56.4 61 6.4 43.5
07:05 1022 30.18 851 25.13 13.6 56.4 62 6.5 43.6
07:10 1022 30.18 851 25.13 13.6 56.5 61 6.4 43.4
07:15 1022 30.18 851 25.13 13.8 56.8 61 6.4 43.5
07:20 1022 30.18 851 25.13 14.1 57.4 60 6.6 43.9
07:25 1022 30.18 851 25.13 14.6 58.2 58 6.5 43.7
07:30 1022 30.18 851 25.13 14.9 58.9 58 6.8 44.2
07:35 1022 30.18 851 25.13 14.9 58.9 57 6.5 43.7
07:40 1022 30.18 851 25.13 15.1 59.2 57 6.8 44.2
07:45 1022 30.18 851 25.13 15 58.9 56 6.4 43.6
07:50 1022 30.18 851 25.13 15.3 59.5 55 6.4 43.5
07:55 1022 30.18 851 25.13 15.4 59.8 54 6.4 43.5
08:00 1022 30.18 851 25.13 15.7 60.2 52 5.9 42.5
08:05 1022 30.18 851 25.13 16.1 61.1 51 6 42.8
08:10 1022 30.18 851 25.13 16.6 61.9 48 5.7 42.3
08:15 1022 30.18 851 25.13 16.9 62.4 48 5.9 42.6
08:20 1022 30.18 851 25.13 17.1 62.8 48 6.2 43.1
08:25 1022 30.18 851 25.13 16.7 62.1 53 7.1 44.8
08:30 1022 30.18 851 25.13 16.6 61.9 54 7.3 45.1
08:35 1022 30.18 851 25.13 16.4 61.5 51 6.3 43.3
08:40 1022 30.18 851 25.13 16.6 61.8 54 7.3 45.2
08:45 1022 30.18 851 25.13 16.4 61.5 52 6.5 43.7
08:50 1022 30.18 851 25.13 16.5 61.7 51 6.4 43.5
08:55 1022 30.18 851 25.13 17.5 63.5 49 6.8 44.2
09:00 1022 30.18 851 25.13 18.1 64.5 48 6.9 44.3
09:05 1022 30.18 851 25.13 18.4 65.1 48 7.3 45.1
09:10 1022 30.18 851 25.13 18 64.4 50 7.6 45.7
09:15 1022 30.18 851 25.13 18 64.4 48 7 44.5
09:20 1022 30.18 851 25.13 18.4 65.1 46 6.7 44.1
09:25 1022 30.18 851 25.13 18.8 65.8 46 7 44.7
09:30 1022 30.18 851 25.13 18.9 66.1 45 7 44.5
09:35 1022 30.18 851 25.13 18.9 65.9 46 7.1 44.7
09:40 1022 30.18 851 25.13 18.8 65.8 47 7.5 45.5
09:45 1022 30.18 851 25.13 18.8 65.9 46 7.2 45
09:50 1022 30.18 851 25.13 19.7 67.5 43 7.1 44.7
09:55 1022 30.18 851 25.13 20 68 45 7.8 46
10:00 1022 30.18 851 25.13 20.2 68.4 40 6.4 43.5
10:05 1022 30.18 851 25.13 20.5 68.9 40 6.5 43.6
10:10 1022 30.18 851 25.13 20.8 69.5 40 6.7 44.1
10:15 1022 30.18 851 25.13 20.4 68.8 40 6.4 43.5
10:20 1022 30.18 851 25.13 19.9 67.8 43 7 44.5
10:25 1022 30.18 851 25.13 19.7 67.4 41 6.2 43.2
10:30 1022 30.18 851 25.13 20.2 68.3 41 6.5 43.7
10:35 1022 30.18 851 25.13 20.1 68.2 39 5.9 42.6
10:40 1022 30.18 851 25.13 20.8 69.5 40 6.8 44.3
10:45 1022 30.18 851 25.13 20.9 69.6 40 6.8 44.2
10:50 1022 30.18 851 25.13 21.2 70.1 38 6.4 43.5
10:55 1022 30.18 851 25.13 21.1 70 42 7.7 45.9
11:00 1022 30.18 851 25.13 20.5 68.8 41 6.8 44.3
11:05 1022 30.18 851 25.13 20.9 69.6 38 6.2 43.2
11:10 1022 30.18 851 25.13 21.2 70.1 35 5.4 41.8
11:15 1022 30.18 851 25.13 21.3 70.3 37 6.1 43
11:20 1022 30.18 851 25.13 21.6 70.9 37 6.6 43.9
11:25 1022 30.18 851 25.13 21 69.8 37 5.8 42.5
11:30 1022 30.18 851 25.13 21.5 70.8 35 5.6 42.1
11:35 1022 30.18 851 25.13 22 71.6 36 6.3 43.3
11:40 1022 30.18 851 25.13 21.5 70.7 36 5.8 42.4
11:45 1021 30.15 851 25.13 21.5 70.7 35 5.4 41.7
11:50 1021 30.15 851 25.13 21.8 71.2 33 5 41
11:55 1021 30.15 851 25.13 21.2 70.1 34 4.8 40.6
12:00 1021 30.15 851 25.13 21.6 70.8 33 5 40.9
12:05 1021 30.15 850 25.1 21.4 70.6 33 4.7 40.5
12:10 1021 30.15 850 25.1 20.7 69.2 36 5.1 41.3
12:15 1021 30.15 850 25.1 21.2 70.1 34 4.7 40.4
12:20 1021 30.15 850 25.1 21.6 70.9 30 3.7 38.6
12:25 1021 30.15 850 25.1 21.7 71 32 4.4 39.9
12:30 1021 30.15 850 25.1 21.7 71 31 4 39.2
12:35 1021 30.15 850 25.1 22.6 72.7 29 3.7 38.7
12:40 1021 30.15 850 25.1 23 73.3 29 4.2 39.6
12:45 1021 30.15 850 25.1 22.5 72.4 31 4.8 40.7
12:50 1021 30.15 850 25.1 22.4 72.3 31 4.6 40.3
12:55 1021 30.15 850 25.1 22.7 72.9 29 4.2 39.5
13:00 1021 30.15 850 25.1 23.4 74.1 27 3.5 38.3
13:05 1021 30.15 850 25.1 23.6 74.4 27 3.8 38.8
13:10 1021 30.15 850 25.1 23.7 74.6 28 4.1 39.5
13:15 1021 30.15 850 25.1 23.8 74.8 27 4.1 39.3
13:20 1021 30.15 850 25.1 22.7 72.8 32 5.4 41.6
13:25 1021 30.15 850 25.1 23.1 73.6 29 4.3 39.8
13:30 1021 30.15 850 25.1 23.8 74.9 28 4.7 40.4
13:35 1021 30.15 850 25.1 23.6 74.4 29 4.8 40.6
13:40 1021 30.15 850 25.1 23.6 74.5 29 4.9 40.8
13:45 1021 30.15 850 25.1 23.2 73.8 29 4.4 40
13:50 1021 30.15 850 25.1 23.3 73.9 29 4.6 40.3
13:55 1021 30.15 850 25.1 23.5 74.4 28 4.1 39.4
14:00 1020 30.12 850 25.1 23.5 74.4 29 4.9 40.8
14:05 1020 30.12 850 25.1 23.6 74.4 29 4.6 40.3
14:10 1020 30.12 850 25.1 23.7 74.7 27 3.6 38.5
14:15 1020 30.12 850 25.1 23 73.5 29 4.4 39.9
14:20 1020 30.12 850 25.1 23 73.3 28 3.6 38.5
14:25 1020 30.12 849 25.07 24 75.1 27 4.2 39.6
14:30 1020 30.12 849 25.07 23.8 74.8 27 3.8 38.8
14:35 1020 30.12 849 25.07 23.8 74.9 27 4.1 39.3
14:40 1020 30.12 849 25.07 24.3 75.8 26 3.7 38.6
14:45 1020 30.12 849 25.07 23.4 74.1 26 3.1 37.6
14:50 1020 30.12 849 25.07 24.2 75.6 26 3.9 39
14:55 1020 30.12 849 25.07 24.6 76.3 26 4 39.3
15:00 1020 30.12 849 25.07 24.4 76 25 3.6 38.5
15:05 1020 30.12 849 25.07 24.3 75.7 25 3 37.4
15:10 1020 30.12 849 25.07 24.1 75.4 25 3 37.5
15:15 1020 30.12 849 25.07 24.5 76 25 3.5 38.4
15:20 1020 30.12 849 25.07 24.6 76.2 24 3.1 37.6
15:25 1020 30.12 849 25.07 24.2 75.6 26 3.9 39.1
15:30 1020 30.12 849 25.07 23.7 74.6 26 3 37.4
15:35 1020 30.12 849 25.07 24.2 75.6 24 2.8 37
15:40 1020 30.12 849 25.07 24.5 76 25 3.1 37.6
15:45 1020 30.12 849 25.07 23.6 74.4 26 3 37.4
15:50 1020 30.12 849 25.07 23.8 74.8 26 3.2 37.7
15:55 1020 30.12 849 25.07 24.1 75.4 24 2.7 36.8
16:00 1020 30.12 849 25.07 24.3 75.7 25 3.2 37.7
16:05 1020 30.12 849 25.07 23.6 74.4 26 3.3 38
16:10 1020 30.12 849 25.07 23.2 73.7 26 3 37.3
16:15 1020 30.12 849 25.07 23.4 74.2 25 2.7 36.8
16:20 1020 30.12 849 25.07 23.9 75 24 2.2 35.9
16:25 1020 30.12 849 25.07 24.8 76.7 23 2.8 37.1
16:30 1020 30.12 849 25.07 24.4 75.9 23 2.4 36.3
16:35 1020 30.12 849 25.07 23.9 75.1 25 2.9 37.2
16:40 1020 30.12 849 25.07 24.2 75.6 23 2.1 35.7
16:45 1020 30.12 849 25.07 24 75.2 24 2.6 36.8
16:50 1020 30.12 849 25.07 23.9 74.9 25 2.8 37
16:55 1020 30.12 849 25.07 23.1 73.7 26 2.8 37.1
17:00 1020 30.12 849 25.07 23.2 73.7 23 1.3 34.4
17:05 1020 30.12 849 25.07 24.1 75.4 23 2 35.7
17:10 1020 30.12 849 25.07 24.3 75.8 22 1.7 35.1
17:15 1020 30.12 849 25.07 24.8 76.6 22 2 35.7
17:20 1020 30.12 849 25.07 24.5 76.2 22 1.8 35.2
17:25 1020 30.12 849 25.07 24.5 76 23 2.3 36.1
17:30 1020 30.12 849 25.07 23.8 74.9 23 1.9 35.5
17:35 1020 30.12 849 25.07 24.3 75.7 23 2.3 36.1
17:40 1020 30.12 849 25.07 24.5 76.2 22 2 35.5
17:45 1020 30.12 849 25.07 24.7 76.5 23 2.4 36.3
17:50 1020 30.12 849 25.07 24.8 76.6 23 2.7 36.9
17:55 1020 30.12 849 25.07 24.9 76.9 23 2.4 36.3
18:00 1020 30.12 849 25.07 24.5 76.1 24 2.7 36.8
18:05 1020 30.12 849 25.07 23.3 73.9 24 2 35.6
18:10 1020 30.12 849 25.07 23.2 73.8 24 1.9 35.4
18:15 1020 30.12 849 25.07 23.8 74.8 23 1.9 35.4
18:20 1020 30.12 849 25.07 23.7 74.7 24 1.9 35.5
18:25 1020 30.12 849 25.07 24 75.2 24 2.2 36
18:30 1020 30.12 849 25.07 23.7 74.6 24 2.3 36.2
18:35 1020 30.12 849 25.07 22.8 73 26 2.4 36.4
18:40 1020 30.12 849 25.07 22.6 72.7 26 2.2 35.9
18:45 1020 30.12 849 25.07 23 73.3 25 2.2 36
18:50 1020 30.12 849 25.07 23 73.5 25 2.2 36
18:55 1020 30.12 849 25.07 22.9 73.2 26 2.5 36.5
19:00 1020 30.12 849 25.07 23 73.5 26 2.5 36.5
19:05 1020 30.12 849 25.07 23 73.4 26 2.5 36.5
19:10 1020 30.12 849 25.07 22.8 73.1 26 2.5 36.5
19:15 1020 30.12 849 25.07 22.6 72.6 26 2.4 36.4
19:20 1020 30.12 849 25.07 22.5 72.5 25 1.9 35.4
19:25 1020 30.12 849 25.07 22.4 72.2 27 2.4 36.3
19:30 1020 30.12 849 25.07 22.3 72.2 26 1.9 35.4
19:35 1020 30.12 849 25.07 22.1 71.8 26 2 35.6
19:40 1020 30.12 849 25.07 22 71.7 26 1.8 35.2
19:45 1020 30.12 850 25.1 22 71.7 28 3.1 37.5
19:50 1020 30.12 850 25.1 22 71.5 28 2.9 37.2
19:55 1020 30.12 850 25.1 21.8 71.3 28 2.6 36.6
20:00 1020 30.12 850 25.1 21.7 71 28 2.6 36.7
20:05 1020 30.12 850 25.1 21.6 71 29 3 37.4
20:10 1020 30.12 850 25.1 21.6 70.8 29 2.8 37.1
20:15 1020 30.12 850 25.1 21.5 70.7 31 3.7 38.7
20:20 1020 30.12 850 25.1 21.3 70.4 30 3.2 37.8
20:25 1020 30.12 850 25.1 21.2 70.2 33 4.4 39.8
20:30 1021 30.15 850 25.1 21 69.9 37 5.8 42.4
20:35 1021 30.15 850 25.1 20.2 68.3 41 6.6 43.9
20:40 1021 30.15 850 25.1 19.7 67.4 43 7 44.6
20:45 1021 30.15 850 25.1 19.5 67.1 45 7.3 45.1
20:50 1021 30.15 850 25.1 19.4 67 45 7.3 45.2
20:55 1021 30.15 850 25.1 19.4 66.8 46 7.4 45.4
21:00 1021 30.15 850 25.1 19.2 66.6 47 7.7 45.8
21:05 1021 30.15 850 25.1 19.1 66.4 47 7.6 45.6
21:10 1021 30.15 850 25.1 19.1 66.4 46 7.5 45.5
21:15 1021 30.15 850 25.1 19.2 66.6 46 7.5 45.5
21:20 1021 30.15 850 25.1 19.2 66.5 47 7.6 45.7
21:25 1021 30.15 850 25.1 19.1 66.4 47 7.7 45.9
21:30 1021 30.15 850 25.1 19 66.3 47 7.7 45.8
21:35 1021 30.15 850 25.1 19 66.2 47 7.7 45.8
21:40 1021 30.15 851 25.13 18.9 66.1 48 7.7 45.9
21:45 1021 30.15 851 25.13 18.8 65.8 49 7.9 46.1
21:50 1021 30.15 851 25.13 18.6 65.5 49 7.8 46.1
21:55 1021 30.15 851 25.13 18.5 65.3 50 7.9 46.2
22:00 1021 30.15 851 25.13 18.3 65 50 8 46.3
22:05 1021 30.15 851 25.13 18.3 64.9 51 8 46.3
22:10 1021 30.15 851 25.13 18.2 64.7 51 8.1 46.5
22:15 1021 30.15 851 25.13 18.1 64.6 51 8 46.4
22:20 1021 30.15 851 25.13 18 64.5 52 8.1 46.5
22:25 1021 30.15 851 25.13 17.9 64.3 53 8.2 46.8
22:30 1021 30.15 850 25.1 17.8 64 53 8.1 46.6
22:35 1021 30.15 850 25.1 17.8 64 53 8.2 46.8
22:40 1021 30.15 851 25.13 17.6 63.7 54 8.3 46.9
22:45 1021 30.15 850 25.1 17.4 63.4 54 8.3 46.9
22:50 1021 30.15 850 25.1 17.4 63.2 55 8.3 46.9
22:55 1021 30.15 850 25.1 17.2 63 55 8.3 47
23:00 1021 30.15 850 25.1 17 62.6 56 8.3 47
23:05 1021 30.15 850 25.1 16.9 62.3 57 8.4 47.1
23:10 1021 30.15 850 25.1 16.7 62 58 8.5 47.2
23:15 1021 30.15 850 25.1 16.6 61.9 58 8.5 47.2
23:20 1021 30.15 851 25.13 16.7 62.1 58 8.6 47.4
23:25 1021 30.15 850 25.1 16.8 62.2 58 8.6 47.5
23:30 1021 30.15 850 25.1 16.9 62.3 58 8.5 47.3
23:35 1021 30.15 850 25.1 16.8 62.2 58 8.6 47.4
23:40 1021 30.15 850 25.1 16.6 61.9 59 8.7 47.7
23:45 1021 30.15 850 25.1 16.5 61.6 60 8.8 47.8
23:50 1021 30.15 850 25.1 16.3 61.3 61 8.9 48
23:55 1021 30.15 850 25.1 16.2 61.1 62 9 48.2
24:00 1021 30.15 851 25.13 16.1 60.9 62 8.9 48.1